Time,TemperatureF,DewpointF,PressureIn,WindDirection,WindDirectionDegrees,WindSpeedMPH,WindSpeedGustMPH,Humidity,HourlyPrecipIn,Conditions,Clouds,dailyrainin,SoftwareType,DateUTC
2013-03-02 00:01:00,25.0,17.0,-100.00,NE,50,12.0,14.0,72,0.00,,,-99.99,,2013-03-02 06:01:00,
2013-03-02 00:11:00,25.0,17.0,-100.00,NE,50,11.0,14.0,73,0.00,,,-99.99,,2013-03-02 06:11:00,
2013-03-02 00:21:00,25.0,17.0,-100.00,NE,45,11.0,12.0,73,0.00,,,-99.99,,2013-03-02 06:21:00,
2013-03-02 00:31:00,24.0,17.0,-100.00,NE,50,9.0,13.0,73,0.00,,,-99.99,,2013-03-02 06:31:00,
2013-03-02 00:41:00,24.0,17.0,-100.00,NE,50,9.0,13.0,73,0.00,,,-99.99,,2013-03-02 06:41:00,
2013-03-02 00:51:00,24.0,17.0,-100.00,NE,55,9.0,12.0,73,0.00,,,-99.99,,2013-03-02 06:51:00,
2013-03-02 01:01:00,24.0,17.0,-100.00,NE,55,9.0,12.0,73,0.00,,,-99.99,,2013-03-02 07:01:00,
2013-03-02 01:11:00,24.0,17.0,-100.00,ENE,60,10.0,14.0,73,0.00,,,-99.99,,2013-03-02 07:11:00,
2013-03-02 01:21:00,24.0,17.0,-100.00,ENE,60,9.0,14.0,73,0.00,,,-99.99,,2013-03-02 07:21:00,
2013-03-02 01:32:00,24.0,17.0,-100.00,ENE,60,7.0,12.0,73,0.00,,,-99.99,,2013-03-02 07:32:00,
2013-03-02 01:42:00,24.0,17.0,-100.00,ENE,60,7.0,12.0,73,0.00,,,-99.99,,2013-03-02 07:42:00,
2013-03-02 01:51:00,24.0,17.0,-100.00,NE,50,6.0,10.0,73,0.00,,,-99.99,,2013-03-02 07:51:00,
2013-03-02 02:01:00,24.0,17.0,-100.00,NE,50,6.0,10.0,73,0.00,,,-99.99,,2013-03-02 08:01:00,
2013-03-02 02:11:00,24.0,17.0,-100.00,NE,45,6.0,8.0,74,0.00,,,-99.99,,2013-03-02 08:11:00,
2013-03-02 02:21:00,24.0,17.0,-100.00,NNE,15,7.0,9.0,74,0.00,,,-99.99,,2013-03-02 08:21:00,
2013-03-02 02:32:00,24.0,17.0,-100.00,NNE,15,10.0,11.0,74,0.00,,,-99.99,,2013-03-02 08:32:00,
2013-03-02 02:42:00,24.0,17.0,-100.00,NNE,30,7.0,10.0,75,0.00,,,-99.99,,2013-03-02 08:42:00,
2013-03-02 02:52:00,23.0,17.0,-100.00,NE,45,7.0,11.0,75,0.00,,,-99.99,,2013-03-02 08:52:00,
2013-03-02 03:01:00,23.0,17.0,-100.00,NE,45,7.0,11.0,75,0.00,,,-99.99,,2013-03-02 09:01:00,
2013-03-02 03:11:00,23.0,16.0,-100.00,NNE,25,7.0,11.0,75,0.00,,,-99.99,,2013-03-02 09:11:00,
2013-03-02 03:21:00,23.0,16.0,-100.00,NNE,25,6.0,8.0,74,0.00,,,-99.99,,2013-03-02 09:21:00,
2013-03-02 03:32:00,22.0,15.0,-100.00,NNE,15,6.0,7.0,73,0.00,,,-99.99,,2013-03-02 09:32:00,
2013-03-02 03:42:00,22.0,15.0,-100.00,NNE,15,6.0,7.0,73,0.00,,,-99.99,,2013-03-02 09:42:00,
2013-03-02 03:51:00,22.0,15.0,-100.00,NE,35,8.0,11.0,74,0.00,,,-99.99,,2013-03-02 09:51:00,
2013-03-02 04:01:00,22.0,15.0,-100.00,NE,35,8.0,11.0,74,0.00,,,-99.99,,2013-03-02 10:01:00,
2013-03-02 04:15:00,22.0,15.0,-100.00,NE,50,6.0,9.0,74,0.00,,,-99.99,,2013-03-02 10:15:00,
2013-03-02 04:21:00,22.0,16.0,-100.00,NNE,20,8.0,11.0,74,0.00,,,-99.99,,2013-03-02 10:21:00,
2013-03-02 04:32:00,22.0,16.0,-100.00,NE,45,5.0,6.0,75,0.00,,,-99.99,,2013-03-02 10:32:00,
2013-03-02 04:42:00,22.0,16.0,-100.00,NE,45,5.0,6.0,75,0.00,,,-99.99,,2013-03-02 10:42:00,
2013-03-02 04:51:00,22.0,16.0,-100.00,NE,40,6.0,9.0,75,0.00,,,-99.99,,2013-03-02 10:51:00,
2013-03-02 05:01:00,22.0,16.0,-100.00,NE,40,6.0,9.0,75,0.00,,,-99.99,,2013-03-02 11:01:00,
2013-03-02 05:11:00,22.0,16.0,-100.00,NNE,20,4.0,6.0,76,0.00,,,-99.99,,2013-03-02 11:11:00,
2013-03-02 05:21:00,22.0,16.0,-100.00,NNW,335,8.0,10.0,75,0.00,,,-99.99,,2013-03-02 11:21:00,
2013-03-02 05:32:00,22.0,16.0,-100.00,NNW,345,5.0,9.0,75,0.00,,,-99.99,,2013-03-02 11:32:00,
2013-03-02 05:41:00,22.0,16.0,-100.00,NNW,345,5.0,9.0,75,0.00,,,-99.99,,2013-03-02 11:41:00,
2013-03-02 05:52:00,22.0,16.0,-100.00,North,10,6.0,7.0,75,0.00,,,-99.99,,2013-03-02 11:52:00,
2013-03-02 06:02:00,22.0,16.0,-100.00,North,10,6.0,7.0,75,0.00,,,-99.99,,2013-03-02 12:02:00,
2013-03-02 06:11:00,22.0,16.0,-100.00,North,0,4.0,7.0,76,0.00,,,-99.99,,2013-03-02 12:11:00,
2013-03-02 06:21:00,23.0,16.0,-100.00,North,0,3.0,7.0,76,0.00,,,-99.99,,2013-03-02 12:21:00,
2013-03-02 06:33:00,22.0,16.0,-100.00,North,5,4.0,7.0,75,0.00,,,-99.99,,2013-03-02 12:33:00,
2013-03-02 06:43:00,22.0,16.0,-100.00,North,5,4.0,7.0,75,0.00,,,-99.99,,2013-03-02 12:43:00,
2013-03-02 06:53:00,22.0,16.0,-100.00,NNE,15,5.0,7.0,75,0.00,,,-99.99,,2013-03-02 12:53:00,
2013-03-02 07:01:00,22.0,16.0,-100.00,NNE,15,5.0,7.0,75,0.00,,,-99.99,,2013-03-02 13:01:00,
2013-03-02 07:11:00,23.0,16.0,-100.00,North,5,3.0,6.0,75,0.00,,,-99.99,,2013-03-02 13:11:00,
2013-03-02 07:21:00,23.0,16.0,-100.00,NNW,340,2.0,5.0,75,0.00,,,-99.99,,2013-03-02 13:21:00,
2013-03-02 07:32:00,23.0,16.0,-100.00,North,5,4.0,6.0,76,0.00,,,-99.99,,2013-03-02 13:32:00,
2013-03-02 07:41:00,23.0,16.0,-100.00,North,5,4.0,6.0,76,0.00,,,-99.99,,2013-03-02 13:41:00,
2013-03-02 07:52:00,23.0,16.0,-100.00,North,10,3.0,7.0,75,0.00,,,-99.99,,2013-03-02 13:52:00,
2013-03-02 08:01:00,23.0,16.0,-100.00,North,10,3.0,7.0,75,0.00,,,-99.99,,2013-03-02 14:01:00,
2013-03-02 08:11:00,23.0,16.0,-100.00,NNW,330,6.0,7.0,75,0.00,,,-99.99,,2013-03-02 14:11:00,
2013-03-02 08:21:00,23.0,17.0,-100.00,WNW,300,6.0,7.0,75,0.00,,,-99.99,,2013-03-02 14:21:00,
2013-03-02 08:32:00,23.0,16.0,-100.00,NW,325,4.0,7.0,75,0.00,,,-99.99,,2013-03-02 14:32:00,
2013-03-02 08:42:00,23.0,16.0,-100.00,NW,325,4.0,7.0,75,0.00,,,-99.99,,2013-03-02 14:42:00,
2013-03-02 08:52:00,23.0,16.0,-100.00,NNW,340,5.0,9.0,75,0.00,,,-99.99,,2013-03-02 14:52:00,
2013-03-02 09:02:00,23.0,16.0,-100.00,NNW,340,5.0,9.0,75,0.00,,,-99.99,,2013-03-02 15:02:00,
2013-03-02 09:11:00,23.0,16.0,-100.00,NNW,335,4.0,6.0,74,0.00,,,-99.99,,2013-03-02 15:11:00,
2013-03-02 09:21:00,24.0,16.0,-100.00,NNW,340,6.0,9.0,73,0.00,,,-99.99,,2013-03-02 15:21:00,
2013-03-02 09:32:00,24.0,17.0,-100.00,North,350,6.0,8.0,72,0.00,,,-99.99,,2013-03-02 15:32:00,
2013-03-02 09:41:00,24.0,17.0,-100.00,North,350,6.0,8.0,72,0.00,,,-99.99,,2013-03-02 15:41:00,
2013-03-02 09:52:00,24.0,17.0,-100.00,NNW,330,6.0,9.0,72,0.00,,,-99.99,,2013-03-02 15:52:00,
2013-03-02 10:01:00,24.0,17.0,-100.00,NNW,330,6.0,9.0,72,0.00,,,-99.99,,2013-03-02 16:01:00,
2013-03-02 10:11:00,25.0,17.0,-100.00,North,0,4.0,7.0,70,0.00,,,-99.99,,2013-03-02 16:11:00,
2013-03-02 10:21:00,25.0,17.0,-100.00,North,0,4.0,8.0,70,0.00,,,-99.99,,2013-03-02 16:21:00,
2013-03-02 10:32:00,26.0,18.0,-100.00,NW,320,3.0,7.0,69,0.00,,,-99.99,,2013-03-02 16:32:00,
2013-03-02 10:41:00,26.0,18.0,-100.00,NW,320,3.0,7.0,69,0.00,,,-99.99,,2013-03-02 16:41:00,
2013-03-02 10:51:00,27.0,18.0,-100.00,NW,320,1.0,6.0,67,0.00,,,-99.99,,2013-03-02 16:51:00,
2013-03-02 11:01:00,27.0,18.0,-100.00,NW,320,1.0,6.0,67,0.00,,,-99.99,,2013-03-02 17:01:00,
2013-03-02 11:11:00,28.0,18.0,-100.00,North,355,3.0,6.0,65,1.23,,,-99.99,,2013-03-02 17:11:00,
2013-03-02 11:21:00,28.0,18.0,-100.00,NW,305,1.0,6.0,65,1.22,,,-99.99,,2013-03-02 17:21:00,
2013-03-02 11:32:00,30.0,19.0,-100.00,East,85,1.0,6.0,63,1.22,,,-99.99,,2013-03-02 17:32:00,
2013-03-02 11:42:00,30.0,19.0,-100.00,East,85,1.0,6.0,63,1.22,,,-99.99,,2013-03-02 17:42:00,
2013-03-02 11:52:00,31.0,19.0,-100.00,ESE,105,1.0,6.0,62,1.28,,,-99.99,,2013-03-02 17:52:00,
2013-03-02 12:02:00,31.0,19.0,-100.00,ESE,105,1.0,6.0,62,1.28,,,-99.99,,2013-03-02 18:02:00,
2013-03-02 12:11:00,31.0,20.0,-100.00,ENE,70,1.0,4.0,61,1.32,,,-99.99,,2013-03-02 18:11:00,
2013-03-02 12:22:00,31.0,20.0,-100.00,ESE,120,2.0,6.0,61,1.13,,,-99.99,,2013-03-02 18:22:00,
2013-03-02 12:32:00,30.0,18.0,-100.00,NNE,20,2.0,4.0,60,1.16,,,-99.99,,2013-03-02 18:32:00,
2013-03-02 12:42:00,30.0,18.0,-100.00,NNE,20,2.0,4.0,60,1.16,,,-99.99,,2013-03-02 18:42:00,
2013-03-02 12:52:00,32.0,19.0,-100.00,North,0,1.0,6.0,59,1.29,,,-99.99,,2013-03-02 18:52:00,
2013-03-02 13:01:00,32.0,19.0,-100.00,North,0,1.0,6.0,59,1.29,,,-99.99,,2013-03-02 19:01:00,
2013-03-02 13:11:00,33.0,20.0,-100.00,NE,40,4.0,6.0,57,1.03,,,-99.99,,2013-03-02 19:11:00,
2013-03-02 13:21:00,34.0,20.0,-100.00,NE,55,4.0,6.0,56,1.18,,,-99.99,,2013-03-02 19:21:00,
2013-03-02 13:32:00,34.0,20.0,-100.00,NE,45,2.0,5.0,54,1.18,,,-99.99,,2013-03-02 19:32:00,
2013-03-02 13:42:00,34.0,20.0,-100.00,NE,45,2.0,5.0,54,1.18,,,-99.99,,2013-03-02 19:42:00,
2013-03-02 13:52:00,35.0,20.0,-100.00,ENE,60,1.0,4.0,54,1.26,,,-99.99,,2013-03-02 19:52:00,
2013-03-02 14:01:00,35.0,20.0,-100.00,ENE,60,1.0,4.0,54,1.26,,,-99.99,,2013-03-02 20:01:00,
2013-03-02 14:11:00,36.0,21.0,-100.00,ESE,105,1.0,4.0,54,0.98,,,-99.99,,2013-03-02 20:11:00,
2013-03-02 14:21:00,35.0,20.0,-100.00,ESE,105,2.0,7.0,54,1.20,,,-99.99,,2013-03-02 20:21:00,
2013-03-02 14:32:00,36.0,21.0,-100.00,SE,125,2.0,6.0,53,1.20,,,-99.99,,2013-03-02 20:32:00,
2013-03-02 14:42:00,36.0,21.0,-100.00,SE,125,2.0,6.0,53,1.20,,,-99.99,,2013-03-02 20:42:00,
2013-03-02 14:52:00,37.0,21.0,-100.00,ENE,75,2.0,7.0,52,1.09,,,-99.99,,2013-03-02 20:52:00,
2013-03-02 15:02:00,37.0,21.0,-100.00,ENE,75,2.0,7.0,52,1.09,,,-99.99,,2013-03-02 21:02:00,
2013-03-02 15:11:00,36.0,21.0,-100.00,SE,130,3.0,7.0,53,0.98,,,-99.99,,2013-03-02 21:11:00,
2013-03-02 15:22:00,37.0,22.0,-100.00,East,85,1.0,6.0,53,1.22,,,-99.99,,2013-03-02 21:22:00,
2013-03-02 15:32:00,37.0,22.0,-100.00,SW,220,0.0,3.0,53,1.12,,,-99.99,,2013-03-02 21:32:00,
2013-03-02 15:42:00,37.0,22.0,-100.00,SW,220,0.0,3.0,53,1.12,,,-99.99,,2013-03-02 21:42:00,
2013-03-02 15:52:00,36.0,21.0,-100.00,WSW,250,3.0,4.0,54,1.23,,,-99.99,,2013-03-02 21:52:00,
2013-03-02 16:02:00,36.0,21.0,-100.00,WSW,250,3.0,4.0,54,1.23,,,-99.99,,2013-03-02 22:02:00,
2013-03-02 16:11:00,37.0,22.0,-100.00,WSW,245,1.0,4.0,52,1.03,,,-99.99,,2013-03-02 22:11:00,
2013-03-02 16:21:00,37.0,21.0,-100.00,SSE,155,2.0,4.0,52,1.11,,,-99.99,,2013-03-02 22:21:00,
2013-03-02 16:32:00,36.0,20.0,-100.00,SSW,195,4.0,6.0,51,1.16,,,-99.99,,2013-03-02 22:32:00,
2013-03-02 16:42:00,36.0,20.0,-100.00,SSW,195,4.0,6.0,51,1.16,,,-99.99,,2013-03-02 22:42:00,
2013-03-02 16:51:00,35.0,20.0,-100.00,SW,225,7.0,9.0,52,1.13,,,-99.99,,2013-03-02 22:51:00,
2013-03-02 17:01:00,35.0,20.0,-100.00,SW,225,7.0,9.0,52,1.13,,,-99.99,,2013-03-02 23:01:00,
2013-03-02 17:11:00,35.0,20.0,-100.00,South,185,8.0,11.0,54,1.39,,,-99.99,,2013-03-02 23:11:00,
2013-03-02 17:21:00,35.0,20.0,-100.00,South,190,7.0,9.0,54,1.37,,,-99.99,,2013-03-02 23:21:00,
2013-03-02 17:32:00,35.0,20.0,-100.00,South,185,5.0,9.0,54,1.44,,,-99.99,,2013-03-02 23:32:00,
2013-03-02 17:42:00,35.0,20.0,-100.00,South,185,5.0,9.0,54,1.44,,,-99.99,,2013-03-02 23:42:00,
2013-03-02 17:52:00,34.0,20.0,-100.00,SE,145,7.0,9.0,56,1.35,,,-99.99,,2013-03-02 23:52:00,
2013-03-02 18:02:00,34.0,20.0,-100.00,SE,145,7.0,9.0,56,1.35,,,-99.99,,2013-03-03 00:02:00,
2013-03-02 18:11:00,34.0,20.0,-100.00,SSE,150,7.0,9.0,56,1.23,,,-99.99,,2013-03-03 00:11:00,
2013-03-02 18:22:00,34.0,21.0,-100.00,SE,145,7.0,9.0,59,1.23,,,-99.99,,2013-03-03 00:22:00,
2013-03-02 18:32:00,33.0,22.0,-100.00,SSE,165,7.0,10.0,61,1.23,,,-99.99,,2013-03-03 00:32:00,
2013-03-02 18:42:00,33.0,22.0,-100.00,SSE,165,7.0,10.0,61,1.23,,,-99.99,,2013-03-03 00:42:00,
2013-03-02 18:52:00,33.0,21.0,-100.00,SSE,165,7.0,9.0,60,1.23,,,-99.99,,2013-03-03 00:52:00,
2013-03-02 19:01:00,33.0,21.0,-100.00,SSE,165,7.0,9.0,60,1.23,,,-99.99,,2013-03-03 01:01:00,
2013-03-02 19:11:00,33.0,22.0,-100.00,SSE,150,6.0,9.0,61,1.22,,,-99.99,,2013-03-03 01:11:00,
2013-03-02 19:21:00,33.0,22.0,-100.00,SSE,160,4.0,8.0,63,1.20,,,-99.99,,2013-03-03 01:21:00,
2013-03-02 19:32:00,33.0,22.0,-100.00,SSE,160,6.0,8.0,63,1.23,,,-99.99,,2013-03-03 01:32:00,
2013-03-02 19:41:00,33.0,22.0,-100.00,SSE,160,6.0,8.0,63,1.23,,,-99.99,,2013-03-03 01:41:00,
2013-03-02 19:52:00,33.0,23.0,-100.00,South,180,10.0,13.0,64,1.23,,,-99.99,,2013-03-03 01:52:00,
2013-03-02 20:01:00,33.0,23.0,-100.00,South,180,10.0,13.0,64,1.23,,,-99.99,,2013-03-03 02:01:00,
2013-03-02 20:11:00,33.0,23.0,-100.00,South,185,11.0,14.0,66,1.26,,,-99.99,,2013-03-03 02:11:00,
2013-03-02 20:21:00,33.0,24.0,-100.00,South,180,10.0,14.0,69,1.29,,,-99.99,,2013-03-03 02:21:00,
2013-03-02 20:32:00,32.0,24.0,-100.00,South,185,11.0,17.0,70,1.28,,,-99.99,,2013-03-03 02:32:00,
2013-03-02 20:41:00,32.0,24.0,-100.00,South,185,11.0,17.0,70,1.28,,,-99.99,,2013-03-03 02:41:00,
2013-03-02 20:52:00,31.0,24.0,-100.00,South,180,13.0,16.0,73,1.37,,,-99.99,,2013-03-03 02:52:00,
2013-03-02 21:01:00,31.0,24.0,-100.00,South,180,13.0,16.0,73,1.37,,,-99.99,,2013-03-03 03:01:00,
2013-03-02 21:11:00,31.0,24.0,-100.00,South,180,12.0,17.0,73,1.35,,,-99.99,,2013-03-03 03:11:00,
2013-03-02 21:21:00,31.0,24.0,-100.00,South,180,12.0,17.0,74,1.35,,,-99.99,,2013-03-03 03:21:00,
2013-03-02 21:31:00,31.0,25.0,-100.00,South,180,11.0,16.0,76,1.40,,,-99.99,,2013-03-03 03:31:00,
2013-03-02 21:41:00,31.0,25.0,-100.00,South,180,11.0,16.0,76,1.40,,,-99.99,,2013-03-03 03:41:00,
2013-03-02 21:51:00,31.0,25.0,-100.00,South,175,12.0,17.0,78,1.42,,,-99.99,,2013-03-03 03:51:00,
2013-03-02 22:01:00,31.0,25.0,-100.00,South,175,12.0,17.0,78,1.42,,,-99.99,,2013-03-03 04:01:00,
2013-03-02 22:11:00,31.0,25.0,-100.00,South,185,11.0,14.0,79,1.42,,,-99.99,,2013-03-03 04:11:00,
2013-03-02 22:21:00,30.0,25.0,-100.00,South,180,10.0,15.0,80,1.40,,,-99.99,,2013-03-03 04:21:00,
2013-03-02 22:31:00,30.0,25.0,-100.00,South,180,9.0,13.0,82,1.52,,,-99.99,,2013-03-03 04:31:00,
2013-03-02 22:41:00,30.0,25.0,-100.00,South,180,9.0,13.0,82,1.52,,,-99.99,,2013-03-03 04:41:00,
2013-03-02 22:51:00,30.0,25.0,-100.00,South,180,10.0,12.0,83,0.00,,,-99.99,,2013-03-03 04:51:00,
2013-03-02 23:02:00,30.0,25.0,-100.00,South,180,10.0,12.0,83,0.00,,,-99.99,,2013-03-03 05:02:00,
2013-03-02 23:11:00,29.0,25.0,-100.00,South,175,8.0,12.0,84,0.00,,,-99.99,,2013-03-03 05:11:00,
2013-03-02 23:22:00,29.0,25.0,-100.00,South,170,7.0,11.0,84,0.00,,,-99.99,,2013-03-03 05:22:00,
2013-03-02 23:32:00,29.0,25.0,-100.00,South,185,7.0,10.0,86,0.00,,,-99.99,,2013-03-03 05:32:00,
2013-03-02 23:42:00,29.0,25.0,-100.00,South,185,7.0,10.0,86,0.00,,,-99.99,,2013-03-03 05:42:00,
2013-03-02 23:52:00,29.0,26.0,-100.00,South,180,9.0,12.0,86,0.00,,,-99.99,,2013-03-03 05:52:00,